Alpine, Utah
Current Conditions -  °F | °C
As of 10:55 PM on Thursday 27 Nov 2014 (Local Time) from KPVU Reporting Station
Clear Clear  
Wind Chill:   Ceiling: Unl
Heat Index:   Visibility: 10mi
Dew Point: -1°   Wind: 5mph
Humidity: 81%   Direction: 100°E
Pressure: 30.18"   Gusts: NA
Location:  40.45°N, 111.78°W
Report Text: KPVU 280555Z 10004KT 10SM CLR 02/M01 A3018 RMK AO1 10040 20020 57007
Loading
Personal Weather Stations






























Interactive Weather Map New forecast layout! Learn more

10-Day Weather Forecast

Advertisements
Track Severe Weather on mobile